Beaverdam, Ohio
Current Conditions -  °F | °C
As of 4:53 PM on Saturday 20 Dec 2014 (Local Time) from KAOH Reporting Station
Haze Haze  
Wind Chill: 33°   Ceiling: 3200
Heat Index: 33°   Visibility: 6mi
Dew Point: 23°   Wind: 3mph
Humidity: 66%   Direction: 230°SW
Pressure: 30.25"   Gusts: NA
Location:  40.83°N, 83.98°W
Report Text: KAOH 202153Z AUTO 23003KT 6SM HZ OVC032 01/M05 A3025 RMK AO2 SLP253 T00061050
Loading
Personal Weather Stations






























Interactive Weather Map New forecast layout! Learn more

10-Day Weather Forecast

Advertisements
Track Severe Weather on mobile